Time;durP1;ratioP1;P1;durP2;ratioP2;P2;SDS_P1;SDS_P2;PMS_P1;PMS_P2;Temp;Humidity;BMP_temperature;BMP_pressure;BME280_temperature;BME280_humidity;BME280_pressure;Samples;Min_cycle;Max_cycle;Signal;HPM_P1;HPM_P2
2023/06/01 01:12:40;;;;;;;2.73;2.20;;;;;;;;;;5987825;23;20261;-93
2023/06/01 07:02:57;;;;;;;;;;;;;;;;;;;;;
2023/06/01 07:50:51;;;;;;;5.00;4.68;;;;;;;;;;5018138;28;20231;-96
2023/06/01 07:53:52;;;;;;;6.13;5.53;;;;;;;;;;5015738;28;20234;-95
2023/06/01 08:03:05;;;;;;;4.97;4.43;;;;;;;;;;5006506;28;20325;-95
2023/06/01 08:06:07;;;;;;;6.53;4.97;;;;;;;;;;5016510;28;20198;-96
2023/06/01 08:09:02;;;;;;;4.80;4.50;;;;;;;;;;5015459;28;20230;-96
2023/06/01 08:38:32;;;;;;;;;;;;;;;;;;;;;
2023/06/01 08:41:36;;;;;;;;;;;;;;;;;;;;;
2023/06/01 08:47:01;;;;;;;5.43;5.03;;;;;;;;;;5013931;28;20641;-96
2023/06/01 08:49:42;;;;;;;11.13;6.43;;;;;;;;;;5016336;28;20247;-95
2023/06/01 08:52:28;;;;;;;5.95;5.53;;;;;;;;;;5016141;28;20292;-94
2023/06/01 08:58:04;;;;;;;5.35;4.85;;;;;;;;;;5014655;28;20296;-94
2023/06/01 09:00:38;;;;;;;5.22;4.80;;;;;;;;;;5014844;28;20201;-94
2023/06/01 09:03:49;;;;;;;;;;;;;;;;;;;;;
2023/06/01 09:07:00;;;;;;;;;;;;;;;;;;;;;
2023/06/01 09:13:01;;;;;;;5.65;5.18;;;;;;;;;;4967730;28;20230;-96
2023/06/01 09:22:18;;;;;;;4.13;3.75;;;;;;;;;;4885756;28;20245;-94
2023/06/01 09:25:28;;;;;;;4.40;4.03;;;;;;;;;;4974120;28;20771;-95
2023/06/01 09:47:07;;;;;;;5.60;3.78;;;;;;;;;;4839117;29;20234;-94
2023/06/01 09:50:05;;;;;;;3.92;3.35;;;;;;;;;;4852828;29;20753;-94
2023/06/01 09:55:29;;;;;;;3.42;3.15;;;;;;;;;;4861051;29;20229;-94
2023/06/01 09:58:20;;;;;;;2.30;2.20;;;;;;;;;;4861178;29;20321;-94
2023/06/01 10:01:00;;;;;;;2.53;2.38;;;;;;;;;;4906894;29;20235;-95
2023/06/01 10:06:58;;;;;;;1.75;1.65;;;;;;;;;;4921174;29;20235;-94
2023/06/01 11:17:53;;;;;;;2.20;2.10;;;;;;;;;;5005977;28;20236;-94
2023/06/01 11:23:59;;;;;;;;;;;;;;;;;;;;;
2023/06/01 12:06:00;;;;;;;1.42;1.23;;;;;;;;;;4975975;22;20243;-87
2023/06/01 12:08:28;;;;;;;1.70;1.60;;;;;;;;;;5035083;28;20259;-84
2023/06/01 12:10:56;;;;;;;1.80;1.70;;;;;;;;;;5050051;28;20243;-84
2023/06/01 12:13:24;;;;;;;1.40;1.33;;;;;;;;;;5050093;28;20577;-84
2023/06/01 12:15:52;;;;;;;2.80;1.98;;;;;;;;;;5037499;28;20224;-84
2023/06/01 12:18:30;;;;;;;1.33;1.23;;;;;;;;;;5054249;28;20225;-86
2023/06/01 12:20:59;;;;;;;1.33;1.33;;;;;;;;;;5067441;28;20251;-86
2023/06/01 12:23:26;;;;;;;1.23;1.08;;;;;;;;;;5052313;28;20228;-87
2023/06/01 12:25:57;;;;;;;1.20;1.20;;;;;;;;;;5038636;28;20277;-86
2023/06/01 12:28:25;;;;;;;2.15;1.95;;;;;;;;;;5046268;28;20304;-86
2023/06/01 12:31:07;;;;;;;1.50;1.02;;;;;;;;;;5033888;28;20227;-86
2023/06/01 12:33:35;;;;;;;1.33;1.23;;;;;;;;;;5040996;28;20225;-85
2023/06/01 12:36:05;;;;;;;2.28;2.15;;;;;;;;;;5060575;28;20220;-85
2023/06/01 12:38:36;;;;;;;1.30;1.30;;;;;;;;;;5043313;28;20223;-86
2023/06/01 12:41:10;;;;;;;2.55;1.40;;;;;;;;;;5041922;28;20238;-87
2023/06/01 12:43:38;;;;;;;0.95;0.95;;;;;;;;;;5040362;28;20318;-86
2023/06/01 12:46:06;;;;;;;1.45;1.33;;;;;;;;;;5045398;28;20232;-87
2023/06/01 12:48:34;;;;;;;1.75;1.65;;;;;;;;;;5042749;28;20266;-86
2023/06/01 12:51:01;;;;;;;2.13;1.58;;;;;;;;;;5041022;28;20686;-87
2023/06/01 12:53:29;;;;;;;1.15;1.05;;;;;;;;;;5034276;28;20230;-86
2023/06/01 12:55:55;;;;;;;1.73;1.63;;;;;;;;;;5032944;28;20232;-88
2023/06/01 12:58:22;;;;;;;1.65;1.33;;;;;;;;;;5037351;28;20224;-87
2023/06/01 13:00:52;;;;;;;1.90;1.65;;;;;;;;;;5032103;28;20246;-88
2023/06/01 13:03:20;;;;;;;3.35;1.80;;;;;;;;;;5033522;28;20692;-86
2023/06/01 13:05:47;;;;;;;5.22;1.60;;;;;;;;;;5035983;28;20286;-88
2023/06/01 13:08:27;;;;;;;1.65;1.55;;;;;;;;;;5035650;28;20204;-87
2023/06/01 13:10:57;;;;;;;2.00;1.90;;;;;;;;;;5036638;28;20246;-89
2023/06/01 13:13:24;;;;;;;2.50;1.27;;;;;;;;;;5036777;28;20277;-87
2023/06/01 13:15:51;;;;;;;1.13;0.90;;;;;;;;;;5037123;28;20208;-87
2023/06/01 13:18:18;;;;;;;1.25;1.25;;;;;;;;;;5033939;28;20200;-85
2023/06/01 13:20:45;;;;;;;0.85;0.85;;;;;;;;;;5029958;28;20208;-86
2023/06/01 13:23:12;;;;;;;0.80;0.80;;;;;;;;;;5030193;28;20243;-87
2023/06/01 13:25:39;;;;;;;0.50;0.50;;;;;;;;;;5032859;28;20196;-88
2023/06/01 13:28:08;;;;;;;0.63;0.63;;;;;;;;;;5032386;28;20223;-87
2023/06/01 13:30:34;;;;;;;0.68;0.63;;;;;;;;;;5031732;28;20196;-86
2023/06/01 13:33:01;;;;;;;0.40;0.40;;;;;;;;;;5031659;28;20703;-87
2023/06/01 13:35:29;;;;;;;0.60;0.60;;;;;;;;;;5032792;28;20282;-87
2023/06/01 13:37:57;;;;;;;0.50;0.50;;;;;;;;;;5032755;28;20192;-87
2023/06/01 13:40:24;;;;;;;3.25;0.40;;;;;;;;;;5033664;28;20208;-86
2023/06/01 13:42:52;;;;;;;0.55;0.55;;;;;;;;;;5031882;28;20232;-86
2023/06/01 13:45:21;;;;;;;0.40;0.40;;;;;;;;;;5033611;28;20197;-87
2023/06/01 13:47:49;;;;;;;0.65;0.65;;;;;;;;;;5032802;28;20215;-85
2023/06/01 13:50:17;;;;;;;0.60;0.60;;;;;;;;;;5032844;28;20227;-86
2023/06/01 13:52:45;;;;;;;0.70;0.70;;;;;;;;;;5032812;28;20578;-86
2023/06/01 13:55:12;;;;;;;0.50;0.50;;;;;;;;;;5032847;28;20204;-87
2023/06/01 13:57:39;;;;;;;0.60;0.60;;;;;;;;;;5031764;28;20279;-86
2023/06/01 14:00:08;;;;;;;0.50;0.50;;;;;;;;;;5031676;28;20192;-85
2023/06/01 14:02:36;;;;;;;0.50;0.50;;;;;;;;;;5032051;28;20266;-85
2023/06/01 14:05:03;;;;;;;0.68;0.68;;;;;;;;;;5032441;28;20700;-85
2023/06/01 14:07:30;;;;;;;1.02;0.93;;;;;;;;;;5033406;28;20208;-87
2023/06/01 14:09:58;;;;;;;1.00;1.00;;;;;;;;;;5031046;28;20238;-86
2023/06/01 14:12:25;;;;;;;1.02;1.02;;;;;;;;;;5032372;28;20583;-85
2023/06/01 14:14:51;;;;;;;1.02;1.02;;;;;;;;;;5031901;28;20542;-86
2023/06/01 14:17:18;;;;;;;2.97;1.35;;;;;;;;;;5030222;28;20260;-85
2023/06/01 14:19:46;;;;;;;1.27;1.27;;;;;;;;;;5029796;28;20600;-84
2023/06/01 14:22:13;;;;;;;4.72;1.50;;;;;;;;;;5032861;28;20220;-86
2023/06/01 14:24:39;;;;;;;1.55;1.08;;;;;;;;;;5031323;28;20754;-86
2023/06/01 14:27:09;;;;;;;1.25;1.17;;;;;;;;;;5031027;28;20668;-86
2023/06/01 14:29:36;;;;;;;2.90;1.30;;;;;;;;;;5032726;28;20196;-86
2023/06/01 14:32:03;;;;;;;1.20;1.20;;;;;;;;;;5031536;28;20203;-87
2023/06/01 14:34:30;;;;;;;1.40;1.30;;;;;;;;;;5030866;28;20211;-86
2023/06/01 14:37:00;;;;;;;1.08;1.08;;;;;;;;;;5031253;28;20204;-87
2023/06/01 14:39:28;;;;;;;1.52;1.42;;;;;;;;;;5032050;28;20196;-85
2023/06/01 14:41:55;;;;;;;1.77;1.10;;;;;;;;;;5029728;28;20204;-86
2023/06/01 14:44:22;;;;;;;1.50;1.40;;;;;;;;;;5029331;28;20235;-86
2023/06/01 14:46:49;;;;;;;1.75;1.58;;;;;;;;;;5029154;28;20208;-86
2023/06/01 14:49:16;;;;;;;2.63;1.70;;;;;;;;;;5029498;28;20189;-85
2023/06/01 14:51:43;;;;;;;1.67;1.63;;;;;;;;;;5030008;28;20204;-85
2023/06/01 14:54:12;;;;;;;3.25;1.88;;;;;;;;;;5029576;28;20601;-86
2023/06/01 14:56:39;;;;;;;1.90;1.80;;;;;;;;;;5029755;28;20207;-85
2023/06/01 14:59:08;;;;;;;1.60;1.60;;;;;;;;;;5029461;28;20204;-84
2023/06/01 15:01:35;;;;;;;2.92;1.90;;;;;;;;;;5030524;28;20483;-87
2023/06/01 15:04:03;;;;;;;1.67;1.58;;;;;;;;;;5030471;28;20236;-84
2023/06/01 15:06:30;;;;;;;2.65;2.15;;;;;;;;;;5030298;28;20236;-85
2023/06/01 15:08:56;;;;;;;1.52;1.48;;;;;;;;;;5030929;28;20208;-85
2023/06/01 15:11:26;;;;;;;2.15;2.05;;;;;;;;;;5034471;28;20243;-85
2023/06/01 15:13:52;;;;;;;2.00;1.90;;;;;;;;;;5033398;28;20287;-86
2023/06/01 15:16:20;;;;;;;2.45;2.35;;;;;;;;;;5033522;28;20311;-84
2023/06/01 15:18:46;;;;;;;1.80;1.70;;;;;;;;;;5033795;28;20200;-86
2023/06/01 15:21:13;;;;;;;2.28;2.17;;;;;;;;;;5034438;28;20200;-86
2023/06/01 15:23:43;;;;;;;2.15;2.05;;;;;;;;;;5036112;28;20215;-88
2023/06/01 15:26:10;;;;;;;2.00;1.60;;;;;;;;;;5035558;28;20203;-87
2023/06/01 15:28:41;;;;;;;2.00;1.90;;;;;;;;;;5033507;28;20272;-88
2023/06/01 15:31:09;;;;;;;2.25;2.15;;;;;;;;;;5034724;28;20191;-88
2023/06/01 15:33:36;;;;;;;2.10;2.00;;;;;;;;;;5039577;28;20218;-87
2023/06/01 15:36:12;;;;;;;1.45;1.35;;;;;;;;;;5041430;28;20196;-86
2023/06/01 15:38:41;;;;;;;2.15;2.05;;;;;;;;;;5040844;28;20200;-87
2023/06/01 15:41:09;;;;;;;2.10;1.90;;;;;;;;;;5028656;28;20197;-88
2023/06/01 15:43:38;;;;;;;2.75;2.55;;;;;;;;;;5029679;28;20613;-87
2023/06/01 15:46:09;;;;;;;2.10;1.95;;;;;;;;;;5031181;28;20222;-86
2023/06/01 15:48:39;;;;;;;2.75;2.00;;;;;;;;;;5032641;28;20192;-86
2023/06/01 15:51:06;;;;;;;2.58;2.38;;;;;;;;;;5027857;28;20211;-88
2023/06/01 15:53:35;;;;;;;2.70;2.30;;;;;;;;;;5033796;28;20207;-89
2023/06/01 15:56:09;;;;;;;2.50;2.30;;;;;;;;;;5025912;28;20200;-87
2023/06/01 15:58:36;;;;;;;2.15;2.05;;;;;;;;;;5036849;28;20212;-86
2023/06/01 16:01:03;;;;;;;3.15;2.45;;;;;;;;;;5036356;28;20200;-87
2023/06/01 16:04:04;;;;;;;3.38;2.33;;;;;;;;;;5034822;28;20232;-88
2023/06/01 16:06:36;;;;;;;3.08;2.78;;;;;;;;;;4954127;29;20292;-87
2023/06/01 16:09:03;;;;;;;3.20;3.00;;;;;;;;;;4953093;29;20214;-89
2023/06/01 16:11:30;;;;;;;2.25;2.15;;;;;;;;;;4980732;28;20232;-88
2023/06/01 16:14:01;;;;;;;3.53;2.03;;;;;;;;;;5011731;28;20262;-89
2023/06/01 16:16:30;;;;;;;4.97;3.00;;;;;;;;;;5010596;28;20212;-91
2023/06/01 16:18:58;;;;;;;3.20;3.00;;;;;;;;;;5010245;28;20256;-87
2023/06/01 16:21:26;;;;;;;2.85;2.65;;;;;;;;;;5012524;28;20200;-87
2023/06/01 16:23:58;;;;;;;2.55;2.35;;;;;;;;;;5011745;28;20278;-88
2023/06/01 16:26:26;;;;;;;3.10;2.47;;;;;;;;;;5012558;28;20325;-85
2023/06/01 16:28:54;;;;;;;3.85;2.42;;;;;;;;;;5014200;28;20605;-87
2023/06/01 16:31:22;;;;;;;2.78;2.45;;;;;;;;;;5019942;28;20204;-89
2023/06/01 16:33:49;;;;;;;2.22;2.10;;;;;;;;;;5019724;28;20217;-86
2023/06/01 16:36:16;;;;;;;2.50;2.30;;;;;;;;;;5051250;28;20192;-86
2023/06/01 16:38:43;;;;;;;2.90;2.70;;;;;;;;;;5018475;28;20747;-86
2023/06/01 16:41:12;;;;;;;2.08;1.98;;;;;;;;;;5014166;28;20209;-87
2023/06/01 16:43:40;;;;;;;2.58;2.47;;;;;;;;;;5017717;28;20314;-87
2023/06/01 16:46:08;;;;;;;2.50;2.33;;;;;;;;;;5018291;28;20193;-86
2023/06/01 16:48:35;;;;;;;2.80;2.70;;;;;;;;;;5014873;28;20712;-86
2023/06/01 16:51:02;;;;;;;2.60;2.50;;;;;;;;;;5016201;28;20299;-85
2023/06/01 16:53:29;;;;;;;3.50;2.70;;;;;;;;;;5025645;28;20210;-86
2023/06/01 16:55:55;;;;;;;2.97;2.78;;;;;;;;;;5017435;28;20185;-88
2023/06/01 16:58:23;;;;;;;2.40;2.30;;;;;;;;;;5021167;28;20201;-87
2023/06/01 17:00:50;;;;;;;3.20;2.80;;;;;;;;;;5009583;28;20211;-87
2023/06/01 17:03:29;;;;;;;2.45;2.25;;;;;;;;;;5007931;28;20254;-87
2023/06/01 17:05:58;;;;;;;3.17;2.97;;;;;;;;;;5031287;28;20251;-87
2023/06/01 17:08:25;;;;;;;2.38;2.28;;;;;;;;;;5047222;28;20212;-88
2023/06/01 17:10:53;;;;;;;2.92;2.72;;;;;;;;;;5030069;28;20758;-87
2023/06/01 17:13:23;;;;;;;5.95;2.85;;;;;;;;;;5030573;28;20266;-87
2023/06/01 17:15:52;;;;;;;2.72;2.53;;;;;;;;;;5030709;28;20207;-88
2023/06/01 17:18:19;;;;;;;3.45;3.22;;;;;;;;;;5030942;28;20210;-88
2023/06/01 17:20:46;;;;;;;4.22;3.15;;;;;;;;;;5031893;28;20200;-89
2023/06/01 17:23:13;;;;;;;4.20;2.88;;;;;;;;;;5030968;28;20200;-88
2023/06/01 17:26:02;;;;;;;3.55;3.30;;;;;;;;;;5031957;28;20231;-88
2023/06/01 17:28:33;;;;;;;3.50;3.25;;;;;;;;;;5033810;28;20227;-87
2023/06/01 17:31:02;;;;;;;3.28;2.75;;;;;;;;;;5011545;28;20189;-89
2023/06/01 17:33:30;;;;;;;2.75;2.50;;;;;;;;;;5014340;28;20259;-90
2023/06/01 17:35:57;;;;;;;5.35;3.30;;;;;;;;;;5013722;28;20720;-89
2023/06/01 17:38:25;;;;;;;4.65;3.25;;;;;;;;;;5012440;28;20219;-87
2023/06/01 17:40:55;;;;;;;3.83;3.42;;;;;;;;;;5011997;28;20287;-88
2023/06/01 17:43:24;;;;;;;5.03;2.80;;;;;;;;;;5011860;28;20216;-87
2023/06/01 17:45:51;;;;;;;5.47;3.15;;;;;;;;;;5012746;28;20233;-87
2023/06/01 17:48:22;;;;;;;3.38;3.17;;;;;;;;;;5012587;28;20290;-87
2023/06/01 17:50:49;;;;;;;2.67;2.55;;;;;;;;;;5011864;28;20204;-87
2023/06/01 17:53:17;;;;;;;2.83;2.58;;;;;;;;;;5011981;28;20529;-88
2023/06/01 17:55:47;;;;;;;6.03;3.33;;;;;;;;;;5014052;28;20211;-87
2023/06/01 17:58:17;;;;;;;8.43;4.78;;;;;;;;;;5016203;28;20672;-86
2023/06/01 18:00:45;;;;;;;4.82;3.40;;;;;;;;;;5014302;28;20196;-87
2023/06/01 18:03:12;;;;;;;4.32;3.35;;;;;;;;;;5016276;28;20283;-90
2023/06/01 18:05:41;;;;;;;4.95;3.15;;;;;;;;;;5014732;28;20617;-87
2023/06/01 18:08:08;;;;;;;4.72;2.55;;;;;;;;;;5018106;28;20251;-87
2023/06/01 18:10:35;;;;;;;4.25;2.50;;;;;;;;;;5014969;28;20208;-86
2023/06/01 18:13:03;;;;;;;3.13;2.83;;;;;;;;;;5017235;28;20212;-89
2023/06/01 18:15:30;;;;;;;3.75;3.40;;;;;;;;;;5020935;28;20312;-86
2023/06/01 18:17:57;;;;;;;3.65;3.30;;;;;;;;;;5031536;28;20199;-88
2023/06/01 18:20:24;;;;;;;9.50;4.90;;;;;;;;;;5014722;28;20214;-88
2023/06/01 18:22:52;;;;;;;7.68;5.40;;;;;;;;;;5013477;28;20654;-87
2023/06/01 18:25:19;;;;;;;7.22;5.20;;;;;;;;;;5017167;28;20239;-88
2023/06/01 18:27:46;;;;;;;6.43;5.40;;;;;;;;;;5024855;28;20202;-87
2023/06/01 18:30:13;;;;;;;2.53;2.40;;;;;;;;;;5011082;28;20239;-87
2023/06/01 18:32:40;;;;;;;2.97;2.78;;;;;;;;;;5011046;28;20203;-87
2023/06/01 18:35:07;;;;;;;7.43;3.95;;;;;;;;;;5015880;28;20202;-86
2023/06/01 18:37:35;;;;;;;2.75;2.58;;;;;;;;;;5032326;28;20189;-86
2023/06/01 18:40:04;;;;;;;4.85;3.55;;;;;;;;;;5019749;28;20207;-87
2023/06/01 18:42:32;;;;;;;5.20;3.88;;;;;;;;;;5011703;28;20203;-87
2023/06/01 18:44:59;;;;;;;3.28;2.72;;;;;;;;;;5013970;28;20734;-88
2023/06/01 18:47:26;;;;;;;2.65;2.45;;;;;;;;;;5014786;28;20214;-87
2023/06/01 18:49:54;;;;;;;3.03;2.80;;;;;;;;;;5013524;28;20703;-87
2023/06/01 18:52:21;;;;;;;4.47;3.47;;;;;;;;;;5014513;28;20288;-87
2023/06/01 18:54:48;;;;;;;4.60;4.05;;;;;;;;;;5014530;28;20198;-89
2023/06/01 18:57:19;;;;;;;3.17;2.97;;;;;;;;;;5018760;28;20666;-89
2023/06/01 18:59:47;;;;;;;5.93;3.70;;;;;;;;;;5018671;28;20216;-88
2023/06/01 19:02:15;;;;;;;3.58;2.58;;;;;;;;;;5015810;28;20238;-88
2023/06/01 19:04:42;;;;;;;3.20;2.90;;;;;;;;;;5014960;28;20242;-87
2023/06/01 19:07:22;;;;;;;2.47;2.33;;;;;;;;;;5014581;28;20204;-88
2023/06/01 19:09:55;;;;;;;2.97;2.78;;;;;;;;;;5013486;28;20192;-88
2023/06/01 19:12:27;;;;;;;5.43;3.13;;;;;;;;;;5013863;28;20223;-88
2023/06/01 19:14:56;;;;;;;4.18;2.80;;;;;;;;;;5012992;28;20211;-88
2023/06/01 19:17:23;;;;;;;3.78;2.60;;;;;;;;;;5013174;28;20214;-87
2023/06/01 19:19:52;;;;;;;2.95;2.63;;;;;;;;;;5013393;28;20205;-87
2023/06/01 19:22:22;;;;;;;2.20;2.10;;;;;;;;;;5014537;28;20543;-85
2023/06/01 19:24:48;;;;;;;5.53;2.83;;;;;;;;;;5011992;28;20232;-85
2023/06/01 19:27:15;;;;;;;4.95;3.20;;;;;;;;;;5014092;28;20196;-84
2023/06/01 19:29:45;;;;;;;3.42;3.13;;;;;;;;;;5011743;28;20196;-83
2023/06/01 19:32:13;;;;;;;3.53;2.70;;;;;;;;;;5017296;28;20203;-83
2023/06/01 19:34:41;;;;;;;3.42;3.10;;;;;;;;;;5010649;28;20207;-84
2023/06/01 19:37:10;;;;;;;2.72;2.63;;;;;;;;;;5006872;28;20203;-85
2023/06/01 19:39:38;;;;;;;6.07;2.88;;;;;;;;;;5007410;28;20562;-86
2023/06/01 19:42:07;;;;;;;3.08;2.83;;;;;;;;;;5011986;28;20206;-84
2023/06/01 19:44:34;;;;;;;3.08;2.65;;;;;;;;;;5011650;28;20226;-83
2023/06/01 19:47:03;;;;;;;2.67;2.47;;;;;;;;;;5006145;28;20245;-84
2023/06/01 19:49:35;;;;;;;2.70;2.47;;;;;;;;;;4994840;28;20213;-85
2023/06/01 19:52:04;;;;;;;2.45;2.35;;;;;;;;;;5004554;28;20204;-85
2023/06/01 19:54:30;;;;;;;2.97;2.70;;;;;;;;;;5005959;28;20210;-85
2023/06/01 19:56:58;;;;;;;3.35;2.97;;;;;;;;;;5012616;28;20437;-84
2023/06/01 19:59:26;;;;;;;4.18;2.75;;;;;;;;;;5011210;28;20265;-86
2023/06/01 20:01:53;;;;;;;2.97;2.63;;;;;;;;;;5012850;28;20199;-86
2023/06/01 20:04:22;;;;;;;4.68;2.92;;;;;;;;;;5012052;28;20221;-84
2023/06/01 20:06:50;;;;;;;10.05;2.38;;;;;;;;;;5007618;28;20194;-85
2023/06/01 20:09:18;;;;;;;3.08;2.88;;;;;;;;;;5011741;28;20260;-85
2023/06/01 20:11:46;;;;;;;2.80;2.60;;;;;;;;;;5012553;28;20232;-84
2023/06/01 20:14:13;;;;;;;3.38;2.65;;;;;;;;;;5013962;28;20203;-84
2023/06/01 20:16:42;;;;;;;5.13;3.13;;;;;;;;;;5012361;28;20582;-85
2023/06/01 20:19:13;;;;;;;3.00;2.75;;;;;;;;;;5013242;28;20203;-84
2023/06/01 20:21:45;;;;;;;6.35;3.00;;;;;;;;;;5017243;28;20200;-87
2023/06/01 20:24:13;;;;;;;2.38;2.28;;;;;;;;;;5017206;28;20211;-85
2023/06/01 20:26:40;;;;;;;4.07;2.72;;;;;;;;;;5013689;28;20284;-86
2023/06/01 20:29:11;;;;;;;3.65;2.47;;;;;;;;;;5012327;28;20614;-85
2023/06/01 20:31:38;;;;;;;3.00;2.80;;;;;;;;;;5012402;28;20203;-87
2023/06/01 20:34:07;;;;;;;4.03;2.35;;;;;;;;;;5013284;28;20298;-87
2023/06/01 20:36:35;;;;;;;3.25;3.03;;;;;;;;;;5013040;28;20199;-87
2023/06/01 20:39:04;;;;;;;2.25;2.15;;;;;;;;;;5009634;28;20252;-84
2023/06/01 20:41:31;;;;;;;3.20;2.90;;;;;;;;;;4991462;28;20203;-86
2023/06/01 20:43:59;;;;;;;2.83;2.58;;;;;;;;;;4989957;28;20285;-85
2023/06/01 20:46:28;;;;;;;2.90;2.60;;;;;;;;;;5012664;28;20319;-86
2023/06/01 20:48:56;;;;;;;2.63;2.10;;;;;;;;;;5028612;28;20205;-85
2023/06/01 20:51:24;;;;;;;3.27;3.07;;;;;;;;;;5012382;28;20598;-84
2023/06/01 20:53:52;;;;;;;2.67;2.47;;;;;;;;;;5010573;28;20224;-87
2023/06/01 20:56:24;;;;;;;2.90;2.45;;;;;;;;;;5012790;28;20678;-85
2023/06/01 20:58:50;;;;;;;3.10;2.58;;;;;;;;;;5015386;28;20203;-85
2023/06/01 21:01:26;;;;;;;2.38;2.17;;;;;;;;;;5013703;28;20207;-84
2023/06/01 21:03:53;;;;;;;2.60;2.40;;;;;;;;;;5012796;28;20214;-86
2023/06/01 21:06:20;;;;;;;5.65;2.55;;;;;;;;;;5013608;28;20245;-87
2023/06/01 21:08:47;;;;;;;2.90;2.38;;;;;;;;;;5009094;28;20599;-87
2023/06/01 21:11:15;;;;;;;2.45;2.35;;;;;;;;;;5009328;28;20241;-89
2023/06/01 21:13:44;;;;;;;3.03;2.75;;;;;;;;;;5013028;28;20213;-88
2023/06/01 21:16:11;;;;;;;2.83;2.57;;;;;;;;;;5001597;28;20645;-87
2023/06/01 21:21:22;;;;;;;2.47;2.28;;;;;;;;;;5005687;28;20658;-87
2023/06/01 21:23:51;;;;;;;2.90;2.70;;;;;;;;;;5010796;28;20205;-87
2023/06/01 21:26:17;;;;;;;2.80;2.60;;;;;;;;;;5011511;28;20241;-87
2023/06/01 21:28:46;;;;;;;3.30;2.28;;;;;;;;;;5012386;28;20287;-89
2023/06/01 21:31:14;;;;;;;1.73;1.65;;;;;;;;;;5011042;28;20284;-89
2023/06/01 21:33:42;;;;;;;4.07;1.80;;;;;;;;;;5011353;28;20208;-87
2023/06/01 21:36:08;;;;;;;1.80;1.70;;;;;;;;;;5011203;28;20292;-90
2023/06/01 21:38:36;;;;;;;2.43;1.90;;;;;;;;;;5010282;28;20721;-89
2023/06/01 21:41:10;;;;;;;2.10;1.77;;;;;;;;;;5010986;28;20572;-88
2023/06/01 21:43:43;;;;;;;3.10;2.50;;;;;;;;;;5011205;28;20199;-89
2023/06/01 21:46:12;;;;;;;2.50;2.30;;;;;;;;;;5009778;28;20225;-86
2023/06/01 21:48:38;;;;;;;2.33;2.17;;;;;;;;;;5010880;28;20198;-87
2023/06/01 21:51:05;;;;;;;1.90;1.90;;;;;;;;;;5010809;28;20201;-85
2023/06/01 21:53:32;;;;;;;3.03;2.30;;;;;;;;;;5010409;28;20205;-86
2023/06/01 21:56:03;;;;;;;3.53;2.30;;;;;;;;;;5010457;28;20685;-90
2023/06/01 21:58:36;;;;;;;1.97;1.83;;;;;;;;;;4991293;28;20273;-87
2023/06/01 22:01:03;;;;;;;2.33;2.17;;;;;;;;;;4993503;28;20201;-86
2023/06/01 22:03:33;;;;;;;3.17;2.53;;;;;;;;;;4993073;28;20667;-87
2023/06/01 22:06:00;;;;;;;2.30;2.20;;;;;;;;;;4991998;28;20516;-88
2023/06/01 22:08:28;;;;;;;2.37;2.27;;;;;;;;;;4991326;28;20294;-87
2023/06/01 22:10:55;;;;;;;2.20;2.13;;;;;;;;;;4991461;28;20227;-89
2023/06/01 22:13:23;;;;;;;1.87;1.77;;;;;;;;;;5006444;28;20540;-89
2023/06/01 22:15:52;;;;;;;3.47;2.37;;;;;;;;;;4994352;28;20200;-87
2023/06/01 22:18:19;;;;;;;3.13;2.00;;;;;;;;;;5013626;28;20207;-90
2023/06/01 22:20:48;;;;;;;1.87;1.77;;;;;;;;;;5018654;28;20284;-87
2023/06/01 22:23:14;;;;;;;4.83;1.70;;;;;;;;;;5017561;28;20243;-88
2023/06/01 22:25:41;;;;;;;3.77;2.60;;;;;;;;;;5031035;28;20275;-88
2023/06/01 22:28:08;;;;;;;5.07;2.37;;;;;;;;;;5014454;28;20200;-87
2023/06/01 22:30:36;;;;;;;2.07;1.83;;;;;;;;;;5017761;28;20217;-88
2023/06/01 22:33:03;;;;;;;1.97;1.57;;;;;;;;;;5014111;28;20236;-87
2023/06/01 22:35:31;;;;;;;2.83;1.90;;;;;;;;;;5013890;28;20196;-87
2023/06/01 22:37:59;;;;;;;2.43;1.90;;;;;;;;;;5015423;28;20201;-87
2023/06/01 22:40:26;;;;;;;2.07;1.90;;;;;;;;;;5015195;28;20205;-87
2023/06/01 22:42:54;;;;;;;3.53;2.03;;;;;;;;;;5015203;28;20303;-87
2023/06/01 22:45:21;;;;;;;2.03;1.83;;;;;;;;;;5016782;28;20228;-88
2023/06/01 22:47:48;;;;;;;3.07;2.10;;;;;;;;;;5024725;28;20720;-87
2023/06/01 22:50:18;;;;;;;2.50;2.40;;;;;;;;;;5023954;28;20284;-87
2023/06/01 22:52:45;;;;;;;5.00;2.90;;;;;;;;;;5016693;28;20396;-88
2023/06/01 22:55:14;;;;;;;2.17;1.83;;;;;;;;;;5014003;28;20197;-87
2023/06/01 22:57:42;;;;;;;3.37;1.67;;;;;;;;;;5014546;28;20560;-87
2023/06/01 23:00:10;;;;;;;2.23;2.07;;;;;;;;;;5014264;28;20589;-87
2023/06/01 23:02:37;;;;;;;2.50;2.30;;;;;;;;;;5013651;28;20212;-87
2023/06/01 23:05:04;;;;;;;1.53;1.53;;;;;;;;;;5013897;28;20232;-88
2023/06/01 23:07:31;;;;;;;1.73;1.63;;;;;;;;;;5012498;28;20229;-87
2023/06/01 23:09:59;;;;;;;2.03;1.57;;;;;;;;;;5014488;28;20204;-88
2023/06/01 23:12:34;;;;;;;1.77;1.67;;;;;;;;;;5013359;28;20240;-90
2023/06/01 23:15:03;;;;;;;2.23;2.07;;;;;;;;;;5014785;28;20204;-88
2023/06/01 23:17:32;;;;;;;4.03;1.80;;;;;;;;;;5015664;28;20667;-86
2023/06/01 23:20:08;;;;;;;2.13;1.93;;;;;;;;;;5023574;28;20219;-88
2023/06/01 23:22:36;;;;;;;2.47;2.37;;;;;;;;;;5014743;28;20234;-87
2023/06/01 23:25:03;;;;;;;1.87;1.77;;;;;;;;;;5014688;28;20287;-87
2023/06/01 23:27:32;;;;;;;2.00;1.90;;;;;;;;;;5012618;28;20260;-87
2023/06/01 23:29:59;;;;;;;2.20;2.00;;;;;;;;;;5015147;28;20912;-87
2023/06/01 23:32:27;;;;;;;1.57;1.47;;;;;;;;;;5015744;28;20688;-86
2023/06/01 23:34:54;;;;;;;2.37;1.57;;;;;;;;;;5026338;28;20280;-87
2023/06/01 23:37:27;;;;;;;1.97;1.13;;;;;;;;;;5014248;28;20286;-87
2023/06/01 23:39:55;;;;;;;1.10;1.10;;;;;;;;;;5014138;28;20220;-88
2023/06/01 23:42:21;;;;;;;2.53;2.33;;;;;;;;;;5012630;28;20210;-87
2023/06/01 23:44:50;;;;;;;3.57;2.03;;;;;;;;;;5013355;28;20201;-88
2023/06/01 23:47:20;;;;;;;1.77;1.67;;;;;;;;;;5016739;28;20236;-86
2023/06/01 23:49:47;;;;;;;2.20;1.90;;;;;;;;;;5012578;28;20236;-87
2023/06/01 23:52:14;;;;;;;1.60;1.53;;;;;;;;;;5013381;28;20240;-87
2023/06/01 23:54:44;;;;;;;2.10;2.00;;;;;;;;;;5010686;28;20580;-87
2023/06/01 23:57:11;;;;;;;1.83;1.70;;;;;;;;;;5012711;28;20198;-87
2023/06/01 23:59:38;;;;;;;3.87;1.77;;;;;;;;;;5012820;28;20601;-88
